sensor_id;sensor_type;location;lat;lon;timestamp;pressure;altitude;pressure_sealevel;temperature;humidity
63281;BME280;49406;51.044;3.766;2024-03-02T00:01:34;99791.62;;;6.39;100.00
63281;BME280;49406;51.044;3.766;2024-03-02T00:04:09;99793.20;;;6.40;100.00
63281;BME280;49406;51.044;3.766;2024-03-02T00:06:44;99792.52;;;6.42;100.00
63281;BME280;49406;51.044;3.766;2024-03-02T00:09:18;99779.31;;;6.42;100.00
63281;BME280;49406;51.044;3.766;2024-03-02T00:11:53;99785.59;;;6.45;100.00
63281;BME280;49406;51.044;3.766;2024-03-02T00:14:26;99802.27;;;6.46;100.00
63281;BME280;49406;51.044;3.766;2024-03-02T00:17:03;99817.21;;;6.48;100.00
63281;BME280;49406;51.044;3.766;2024-03-02T00:19:41;99809.23;;;6.49;100.00
63281;BME280;49406;51.044;3.766;2024-03-02T00:22:16;99787.87;;;6.49;100.00
63281;BME280;49406;51.044;3.766;2024-03-02T00:24:50;99803.86;;;6.52;100.00
63281;BME280;49406;51.044;3.766;2024-03-02T00:27:25;99792.92;;;6.51;100.00
63281;BME280;49406;51.044;3.766;2024-03-02T00:30:01;99802.48;;;6.51;100.00
63281;BME280;49406;51.044;3.766;2024-03-02T00:32:40;99810.63;;;6.49;100.00
63281;BME280;49406;51.044;3.766;2024-03-02T00:35:24;99812.50;;;6.45;100.00
63281;BME280;49406;51.044;3.766;2024-03-02T00:37:59;99814.59;;;6.45;100.00
63281;BME280;49406;51.044;3.766;2024-03-02T00:40:37;99815.95;;;6.43;100.00
63281;BME280;49406;51.044;3.766;2024-03-02T00:46:15;99815.94;;;6.40;100.00
63281;BME280;49406;51.044;3.766;2024-03-02T00:48:54;99817.34;;;6.41;100.00
63281;BME280;49406;51.044;3.766;2024-03-02T00:51:31;99820.30;;;6.43;100.00
63281;BME280;49406;51.044;3.766;2024-03-02T00:54:08;99822.58;;;6.47;100.00
63281;BME280;49406;51.044;3.766;2024-03-02T00:56:44;99818.78;;;6.49;100.00
63281;BME280;49406;51.044;3.766;2024-03-02T00:59:18;99823.32;;;6.52;100.00
63281;BME280;49406;51.044;3.766;2024-03-02T01:01:53;99822.12;;;6.54;100.00
63281;BME280;49406;51.044;3.766;2024-03-02T01:04:28;99817.59;;;6.52;100.00
63281;BME280;49406;51.044;3.766;2024-03-02T01:07:02;99821.91;;;6.50;100.00
63281;BME280;49406;51.044;3.766;2024-03-02T01:09:37;99815.80;;;6.45;100.00
63281;BME280;49406;51.044;3.766;2024-03-02T01:12:12;99819.26;;;6.42;100.00
63281;BME280;49406;51.044;3.766;2024-03-02T01:14:46;99816.08;;;6.38;100.00
63281;BME280;49406;51.044;3.766;2024-03-02T01:17:21;99818.80;;;6.31;100.00
63281;BME280;49406;51.044;3.766;2024-03-02T01:19:56;99817.05;;;6.28;100.00
63281;BME280;49406;51.044;3.766;2024-03-02T01:22:30;99821.72;;;6.27;100.00
63281;BME280;49406;51.044;3.766;2024-03-02T01:25:06;99827.44;;;6.25;100.00
63281;BME280;49406;51.044;3.766;2024-03-02T01:27:42;99826.92;;;6.25;100.00
63281;BME280;49406;51.044;3.766;2024-03-02T01:30:17;99829.71;;;6.27;100.00
63281;BME280;49406;51.044;3.766;2024-03-02T01:32:51;99829.70;;;6.25;100.00
63281;BME280;49406;51.044;3.766;2024-03-02T01:35:26;99831.77;;;6.23;100.00
63281;BME280;49406;51.044;3.766;2024-03-02T01:38:00;99831.92;;;6.22;100.00
63281;BME280;49406;51.044;3.766;2024-03-02T01:40:36;99838.81;;;6.20;100.00
63281;BME280;49406;51.044;3.766;2024-03-02T01:43:11;99839.35;;;6.20;100.00
63281;BME280;49406;51.044;3.766;2024-03-02T01:45:46;99839.69;;;6.20;100.00
63281;BME280;49406;51.044;3.766;2024-03-02T01:48:21;99840.19;;;6.16;100.00
63281;BME280;49406;51.044;3.766;2024-03-02T01:50:56;99837.39;;;6.15;100.00
63281;BME280;49406;51.044;3.766;2024-03-02T01:53:30;99837.17;;;6.11;100.00
63281;BME280;49406;51.044;3.766;2024-03-02T01:56:06;99837.66;;;6.06;100.00
63281;BME280;49406;51.044;3.766;2024-03-02T01:58:40;99837.38;;;5.97;100.00
63281;BME280;49406;51.044;3.766;2024-03-02T02:01:16;99837.20;;;5.95;100.00
63281;BME280;49406;51.044;3.766;2024-03-02T02:03:50;99836.73;;;6.01;100.00
63281;BME280;49406;51.044;3.766;2024-03-02T02:06:25;99834.83;;;6.03;100.00
63281;BME280;49406;51.044;3.766;2024-03-02T02:09:00;99836.02;;;5.99;100.00
63281;BME280;49406;51.044;3.766;2024-03-02T02:11:34;99836.55;;;6.01;100.00
63281;BME280;49406;51.044;3.766;2024-03-02T02:14:09;99837.75;;;5.99;100.00
63281;BME280;49406;51.044;3.766;2024-03-02T02:16:44;99840.66;;;5.95;100.00
63281;BME280;49406;51.044;3.766;2024-03-02T02:19:19;99841.75;;;6.00;100.00
63281;BME280;49406;51.044;3.766;2024-03-02T02:21:54;99841.68;;;5.93;100.00
63281;BME280;49406;51.044;3.766;2024-03-02T02:24:28;99842.83;;;5.89;100.00
63281;BME280;49406;51.044;3.766;2024-03-02T02:27:03;99841.48;;;5.91;100.00
63281;BME280;49406;51.044;3.766;2024-03-02T02:29:37;99840.63;;;5.91;100.00
63281;BME280;49406;51.044;3.766;2024-03-02T02:32:12;99839.31;;;5.87;100.00
63281;BME280;49406;51.044;3.766;2024-03-02T02:34:47;99840.04;;;5.88;100.00
63281;BME280;49406;51.044;3.766;2024-03-02T02:37:21;99841.71;;;5.84;100.00
63281;BME280;49406;51.044;3.766;2024-03-02T02:39:56;99842.57;;;5.84;100.00
63281;BME280;49406;51.044;3.766;2024-03-02T02:42:30;99842.36;;;5.80;100.00
63281;BME280;49406;51.044;3.766;2024-03-02T02:45:06;99840.31;;;5.83;100.00
63281;BME280;49406;51.044;3.766;2024-03-02T02:47:39;99842.43;;;5.86;100.00
63281;BME280;49406;51.044;3.766;2024-03-02T02:50:13;99839.24;;;5.91;100.00
63281;BME280;49406;51.044;3.766;2024-03-02T02:52:48;99841.47;;;5.90;100.00
63281;BME280;49406;51.044;3.766;2024-03-02T02:55:23;99838.11;;;5.88;100.00
63281;BME280;49406;51.044;3.766;2024-03-02T02:57:58;99839.64;;;5.97;100.00
63281;BME280;49406;51.044;3.766;2024-03-02T03:00:32;99835.18;;;6.03;100.00
63281;BME280;49406;51.044;3.766;2024-03-02T03:03:07;99830.37;;;6.06;100.00
63281;BME280;49406;51.044;3.766;2024-03-02T03:05:41;99825.15;;;6.05;100.00
63281;BME280;49406;51.044;3.766;2024-03-02T03:08:16;99827.52;;;6.00;100.00
63281;BME280;49406;51.044;3.766;2024-03-02T03:10:51;99825.93;;;5.97;100.00
63281;BME280;49406;51.044;3.766;2024-03-02T03:13:25;99831.55;;;5.90;100.00
63281;BME280;49406;51.044;3.766;2024-03-02T03:16:00;99831.46;;;5.83;100.00
63281;BME280;49406;51.044;3.766;2024-03-02T03:18:34;99826.45;;;5.85;100.00
63281;BME280;49406;51.044;3.766;2024-03-02T03:21:09;99823.00;;;5.87;100.00
63281;BME280;49406;51.044;3.766;2024-03-02T03:23:42;99821.77;;;5.85;100.00
63281;BME280;49406;51.044;3.766;2024-03-02T03:26:17;99820.19;;;5.82;100.00
63281;BME280;49406;51.044;3.766;2024-03-02T03:28:51;99819.52;;;5.84;100.00
63281;BME280;49406;51.044;3.766;2024-03-02T03:31:24;99819.52;;;5.86;100.00
63281;BME280;49406;51.044;3.766;2024-03-02T03:33:59;99821.59;;;5.84;100.00
63281;BME280;49406;51.044;3.766;2024-03-02T03:36:33;99821.23;;;5.84;100.00
63281;BME280;49406;51.044;3.766;2024-03-02T03:39:08;99820.55;;;5.85;100.00
63281;BME280;49406;51.044;3.766;2024-03-02T03:41:45;99819.98;;;5.80;100.00
63281;BME280;49406;51.044;3.766;2024-03-02T03:44:20;99822.38;;;5.74;100.00
63281;BME280;49406;51.044;3.766;2024-03-02T03:46:54;99822.55;;;5.76;100.00
63281;BME280;49406;51.044;3.766;2024-03-02T03:49:29;99818.77;;;5.79;100.00
63281;BME280;49406;51.044;3.766;2024-03-02T03:52:04;99818.42;;;5.78;100.00
63281;BME280;49406;51.044;3.766;2024-03-02T03:54:38;99817.36;;;5.77;100.00
63281;BME280;49406;51.044;3.766;2024-03-02T03:57:13;99812.50;;;5.76;100.00
63281;BME280;49406;51.044;3.766;2024-03-02T03:59:48;99818.75;;;5.77;100.00
63281;BME280;49406;51.044;3.766;2024-03-02T04:02:22;99819.63;;;5.79;100.00
63281;BME280;49406;51.044;3.766;2024-03-02T04:04:57;99817.73;;;5.79;100.00
63281;BME280;49406;51.044;3.766;2024-03-02T04:07:32;99821.07;;;5.84;100.00
63281;BME280;49406;51.044;3.766;2024-03-02T04:10:08;99818.66;;;5.86;100.00
63281;BME280;49406;51.044;3.766;2024-03-02T04:12:43;99810.69;;;5.85;100.00
63281;BME280;49406;51.044;3.766;2024-03-02T04:15:17;99816.67;;;5.90;100.00
63281;BME280;49406;51.044;3.766;2024-03-02T04:17:53;99826.84;;;5.88;100.00
63281;BME280;49406;51.044;3.766;2024-03-02T04:20:28;99828.73;;;5.87;100.00
63281;BME280;49406;51.044;3.766;2024-03-02T04:23:01;99835.98;;;5.94;100.00
63281;BME280;49406;51.044;3.766;2024-03-02T04:25:36;99839.15;;;6.01;100.00
63281;BME280;49406;51.044;3.766;2024-03-02T04:28:10;99842.46;;;6.03;100.00
63281;BME280;49406;51.044;3.766;2024-03-02T04:30:45;99847.01;;;6.04;100.00
63281;BME280;49406;51.044;3.766;2024-03-02T04:33:20;99849.64;;;6.07;100.00
63281;BME280;49406;51.044;3.766;2024-03-02T04:35:54;99849.65;;;6.08;100.00
63281;BME280;49406;51.044;3.766;2024-03-02T04:38:29;99849.65;;;6.10;100.00
63281;BME280;49406;51.044;3.766;2024-03-02T04:41:06;99850.41;;;6.16;100.00
63281;BME280;49406;51.044;3.766;2024-03-02T04:43:40;99854.05;;;6.15;100.00
63281;BME280;49406;51.044;3.766;2024-03-02T04:46:15;99853.86;;;6.13;100.00
63281;BME280;49406;51.044;3.766;2024-03-02T04:48:49;99861.30;;;6.11;100.00
63281;BME280;49406;51.044;3.766;2024-03-02T04:51:28;99862.14;;;6.08;100.00
63281;BME280;49406;51.044;3.766;2024-03-02T04:54:03;99870.91;;;6.02;100.00
63281;BME280;49406;51.044;3.766;2024-03-02T04:56:37;99872.40;;;5.94;100.00
63281;BME280;49406;51.044;3.766;2024-03-02T04:59:22;99869.59;;;5.92;100.00
63281;BME280;49406;51.044;3.766;2024-03-02T05:01:57;99873.28;;;5.95;100.00
63281;BME280;49406;51.044;3.766;2024-03-02T05:04:31;99870.30;;;5.93;100.00
63281;BME280;49406;51.044;3.766;2024-03-02T05:07:06;99875.32;;;5.91;100.00
63281;BME280;49406;51.044;3.766;2024-03-02T05:09:41;99868.62;;;5.86;100.00
63281;BME280;49406;51.044;3.766;2024-03-02T05:12:15;99876.05;;;5.84;100.00
63281;BME280;49406;51.044;3.766;2024-03-02T05:15:14;99874.72;;;5.73;100.00
63281;BME280;49406;51.044;3.766;2024-03-02T05:17:48;99882.11;;;5.69;100.00
63281;BME280;49406;51.044;3.766;2024-03-02T05:20:21;99883.66;;;5.68;100.00
63281;BME280;49406;51.044;3.766;2024-03-02T05:22:56;99884.69;;;5.66;100.00
63281;BME280;49406;51.044;3.766;2024-03-02T05:25:31;99890.23;;;5.65;100.00
63281;BME280;49406;51.044;3.766;2024-03-02T05:28:06;99888.82;;;5.64;100.00
63281;BME280;49406;51.044;3.766;2024-03-02T05:30:43;99889.66;;;5.61;100.00
63281;BME280;49406;51.044;3.766;2024-03-02T05:33:18;99893.57;;;5.55;100.00
63281;BME280;49406;51.044;3.766;2024-03-02T05:35:55;99895.71;;;5.59;100.00
63281;BME280;49406;51.044;3.766;2024-03-02T05:38:30;99893.08;;;5.57;100.00
63281;BME280;49406;51.044;3.766;2024-03-02T05:41:05;99902.39;;;5.54;100.00
63281;BME280;49406;51.044;3.766;2024-03-02T05:43:39;99900.77;;;5.50;100.00
63281;BME280;49406;51.044;3.766;2024-03-02T05:46:14;99894.55;;;5.38;100.00
63281;BME280;49406;51.044;3.766;2024-03-02T05:48:48;99895.40;;;5.37;100.00
63281;BME280;49406;51.044;3.766;2024-03-02T05:51:23;99895.51;;;5.33;100.00
63281;BME280;49406;51.044;3.766;2024-03-02T05:53:57;99901.53;;;5.30;100.00
63281;BME280;49406;51.044;3.766;2024-03-02T05:56:32;99902.54;;;5.27;100.00
63281;BME280;49406;51.044;3.766;2024-03-02T05:59:06;99905.35;;;5.31;100.00
63281;BME280;49406;51.044;3.766;2024-03-02T06:01:46;99907.94;;;5.29;100.00
63281;BME280;49406;51.044;3.766;2024-03-02T06:04:21;99911.02;;;5.26;100.00
63281;BME280;49406;51.044;3.766;2024-03-02T06:06:55;99904.77;;;5.25;100.00
63281;BME280;49406;51.044;3.766;2024-03-02T06:09:31;99906.31;;;5.25;100.00
63281;BME280;49406;51.044;3.766;2024-03-02T06:12:04;99904.77;;;5.25;100.00
63281;BME280;49406;51.044;3.766;2024-03-02T06:14:39;99905.45;;;5.25;100.00
63281;BME280;49406;51.044;3.766;2024-03-02T06:17:13;99904.88;;;5.21;100.00
63281;BME280;49406;51.044;3.766;2024-03-02T06:19:47;99914.13;;;5.15;100.00
63281;BME280;49406;51.044;3.766;2024-03-02T06:22:22;99917.31;;;5.07;100.00
63281;BME280;49406;51.044;3.766;2024-03-02T06:24:58;99919.88;;;5.05;100.00
63281;BME280;49406;51.044;3.766;2024-03-02T06:27:32;99923.27;;;5.12;100.00
63281;BME280;49406;51.044;3.766;2024-03-02T06:30:10;99920.20;;;5.16;100.00
63281;BME280;49406;51.044;3.766;2024-03-02T06:32:45;99919.71;;;5.18;100.00
63281;BME280;49406;51.044;3.766;2024-03-02T06:35:20;99922.15;;;5.19;100.00
63281;BME280;49406;51.044;3.766;2024-03-02T06:37:54;99910.92;;;5.20;100.00
63281;BME280;49406;51.044;3.766;2024-03-02T06:40:29;99911.36;;;5.26;100.00
63281;BME280;49406;51.044;3.766;2024-03-02T06:43:04;99909.48;;;5.29;100.00
63281;BME280;49406;51.044;3.766;2024-03-02T06:45:38;99917.09;;;5.27;100.00
63281;BME280;49406;51.044;3.766;2024-03-02T06:48:13;99921.57;;;5.25;100.00
63281;BME280;49406;51.044;3.766;2024-03-02T06:50:52;99928.07;;;5.32;100.00
63281;BME280;49406;51.044;3.766;2024-03-02T06:53:26;99925.53;;;5.36;100.00
63281;BME280;49406;51.044;3.766;2024-03-02T06:56:01;99921.67;;;5.44;100.00
63281;BME280;49406;51.044;3.766;2024-03-02T06:58:36;99927.92;;;5.58;100.00
63281;BME280;49406;51.044;3.766;2024-03-02T07:01:10;99930.73;;;5.74;100.00
63281;BME280;49406;51.044;3.766;2024-03-02T07:03:45;99925.55;;;5.87;100.00
63281;BME280;49406;51.044;3.766;2024-03-02T07:06:19;99918.21;;;6.11;100.00
63281;BME280;49406;51.044;3.766;2024-03-02T07:08:54;99921.81;;;6.39;100.00
63281;BME280;49406;51.044;3.766;2024-03-02T07:11:28;99924.73;;;6.72;100.00
63281;BME280;49406;51.044;3.766;2024-03-02T07:14:03;99928.64;;;7.00;100.00
63281;BME280;49406;51.044;3.766;2024-03-02T07:16:40;99923.23;;;7.21;100.00
63281;BME280;49406;51.044;3.766;2024-03-02T07:19:16;99920.19;;;7.34;100.00
63281;BME280;49406;51.044;3.766;2024-03-02T07:21:50;99923.06;;;7.50;100.00
63281;BME280;49406;51.044;3.766;2024-03-02T07:24:25;99916.91;;;7.69;100.00
63281;BME280;49406;51.044;3.766;2024-03-02T07:26:59;99925.33;;;7.83;100.00
63281;BME280;49406;51.044;3.766;2024-03-02T07:29:35;99914.24;;;7.94;100.00
63281;BME280;49406;51.044;3.766;2024-03-02T07:32:10;99912.53;;;8.01;100.00
63281;BME280;49406;51.044;3.766;2024-03-02T07:34:44;99912.05;;;8.16;100.00
63281;BME280;49406;51.044;3.766;2024-03-02T07:37:19;99920.98;;;8.31;100.00
63281;BME280;49406;51.044;3.766;2024-03-02T07:39:54;99916.34;;;8.43;100.00
63281;BME280;49406;51.044;3.766;2024-03-02T07:42:28;99909.39;;;8.57;100.00
63281;BME280;49406;51.044;3.766;2024-03-02T07:45:04;99903.65;;;8.62;100.00
63281;BME280;49406;51.044;3.766;2024-03-02T07:47:39;99901.57;;;8.72;100.00
63281;BME280;49406;51.044;3.766;2024-03-02T07:50:14;99903.66;;;8.80;100.00
63281;BME280;49406;51.044;3.766;2024-03-02T07:52:49;99900.18;;;8.78;100.00
63281;BME280;49406;51.044;3.766;2024-03-02T07:55:24;99904.01;;;8.85;100.00
63281;BME280;49406;51.044;3.766;2024-03-02T07:57:58;99912.38;;;8.82;100.00
63281;BME280;49406;51.044;3.766;2024-03-02T08:00:33;99914.64;;;8.82;100.00
63281;BME280;49406;51.044;3.766;2024-03-02T08:03:08;99913.77;;;8.83;100.00
63281;BME280;49406;51.044;3.766;2024-03-02T08:05:45;99907.33;;;8.90;100.00
63281;BME280;49406;51.044;3.766;2024-03-02T08:08:20;99913.61;;;8.98;100.00
63281;BME280;49406;51.044;3.766;2024-03-02T08:10:55;99919.17;;;9.01;100.00
63281;BME280;49406;51.044;3.766;2024-03-02T08:13:29;99920.92;;;8.87;100.00
63281;BME280;49406;51.044;3.766;2024-03-02T08:16:04;99925.09;;;8.81;100.00
63281;BME280;49406;51.044;3.766;2024-03-02T08:18:40;99923.00;;;8.90;100.00
63281;BME280;49406;51.044;3.766;2024-03-02T08:21:15;99930.69;;;8.92;100.00
63281;BME280;49406;51.044;3.766;2024-03-02T08:23:50;99932.77;;;9.01;100.00
63281;BME280;49406;51.044;3.766;2024-03-02T08:26:25;99930.52;;;9.11;100.00
63281;BME280;49406;51.044;3.766;2024-03-02T08:29:02;99935.57;;;9.12;100.00
63281;BME280;49406;51.044;3.766;2024-03-02T08:31:36;99939.58;;;9.04;100.00
63281;BME280;49406;51.044;3.766;2024-03-02T08:34:11;99941.84;;;8.95;100.00
63281;BME280;49406;51.044;3.766;2024-03-02T08:36:46;99937.30;;;8.87;100.00
63281;BME280;49406;51.044;3.766;2024-03-02T08:39:20;99942.34;;;8.85;100.00
63281;BME280;49406;51.044;3.766;2024-03-02T08:41:55;99937.64;;;8.85;100.00
63281;BME280;49406;51.044;3.766;2024-03-02T08:44:30;99941.30;;;8.83;100.00
63281;BME280;49406;51.044;3.766;2024-03-02T08:47:05;99943.56;;;8.80;100.00
63281;BME280;49406;51.044;3.766;2024-03-02T08:49:39;99937.30;;;8.77;100.00
63281;BME280;49406;51.044;3.766;2024-03-02T08:52:14;99933.11;;;8.82;100.00
63281;BME280;49406;51.044;3.766;2024-03-02T08:54:48;99938.35;;;8.98;100.00
63281;BME280;49406;51.044;3.766;2024-03-02T08:57:23;99941.48;;;9.04;100.00
63281;BME280;49406;51.044;3.766;2024-03-02T08:59:57;99947.95;;;9.11;100.00
63281;BME280;49406;51.044;3.766;2024-03-02T09:02:31;99946.71;;;9.23;100.00
63281;BME280;49406;51.044;3.766;2024-03-02T09:05:07;99940.74;;;9.49;100.00
63281;BME280;49406;51.044;3.766;2024-03-02T09:07:42;99935.42;;;9.82;100.00
63281;BME280;49406;51.044;3.766;2024-03-02T09:10:17;99936.41;;;9.99;100.00
63281;BME280;49406;51.044;3.766;2024-03-02T09:12:51;99931.27;;;10.25;100.00
63281;BME280;49406;51.044;3.766;2024-03-02T09:15:26;99940.20;;;10.52;100.00
63281;BME280;49406;51.044;3.766;2024-03-02T09:18:01;99946.04;;;10.68;100.00
63281;BME280;49406;51.044;3.766;2024-03-02T09:20:35;99943.09;;;10.66;100.00
63281;BME280;49406;51.044;3.766;2024-03-02T09:23:10;99940.20;;;10.54;100.00
63281;BME280;49406;51.044;3.766;2024-03-02T09:25:44;99944.46;;;10.40;100.00
63281;BME280;49406;51.044;3.766;2024-03-02T09:28:20;99945.02;;;10.36;100.00
63281;BME280;49406;51.044;3.766;2024-03-02T09:30:54;99939.63;;;10.31;100.00
63281;BME280;49406;51.044;3.766;2024-03-02T09:33:29;99938.44;;;10.26;100.00
63281;BME280;49406;51.044;3.766;2024-03-02T09:36:04;99934.59;;;10.28;100.00
63281;BME280;49406;51.044;3.766;2024-03-02T09:38:38;99935.36;;;10.44;100.00
63281;BME280;49406;51.044;3.766;2024-03-02T09:41:14;99934.30;;;10.72;100.00
63281;BME280;49406;51.044;3.766;2024-03-02T09:43:48;99931.84;;;10.99;100.00
63281;BME280;49406;51.044;3.766;2024-03-02T09:46:23;99930.27;;;11.18;100.00
63281;BME280;49406;51.044;3.766;2024-03-02T09:48:58;99927.58;;;11.44;100.00
63281;BME280;49406;51.044;3.766;2024-03-02T09:51:33;99926.00;;;11.62;100.00
63281;BME280;49406;51.044;3.766;2024-03-02T09:54:08;99919.95;;;11.70;100.00
63281;BME280;49406;51.044;3.766;2024-03-02T09:56:43;99927.98;;;11.72;100.00
63281;BME280;49406;51.044;3.766;2024-03-02T09:59:18;99934.17;;;11.66;100.00
63281;BME280;49406;51.044;3.766;2024-03-02T10:02:00;99932.12;;;11.80;100.00
63281;BME280;49406;51.044;3.766;2024-03-02T10:04:35;99925.17;;;11.90;100.00
63281;BME280;49406;51.044;3.766;2024-03-02T10:07:11;99927.38;;;11.81;100.00
63281;BME280;49406;51.044;3.766;2024-03-02T10:09:47;99931.79;;;11.59;100.00
63281;BME280;49406;51.044;3.766;2024-03-02T10:12:22;99936.67;;;11.46;100.00
63281;BME280;49406;51.044;3.766;2024-03-02T10:15:04;99932.33;;;11.43;100.00
63281;BME280;49406;51.044;3.766;2024-03-02T10:17:40;99925.70;;;11.38;100.00
63281;BME280;49406;51.044;3.766;2024-03-02T10:20:25;99916.30;;;11.34;100.00
63281;BME280;49406;51.044;3.766;2024-03-02T10:23:12;99909.56;;;11.25;100.00
63281;BME280;49406;51.044;3.766;2024-03-02T10:25:47;99911.16;;;11.21;100.00
63281;BME280;49406;51.044;3.766;2024-03-02T10:28:22;99911.10;;;11.10;100.00
63281;BME280;49406;51.044;3.766;2024-03-02T10:30:58;99905.70;;;11.06;100.00
63281;BME280;49406;51.044;3.766;2024-03-02T10:33:33;99900.81;;;11.06;100.00
63281;BME280;49406;51.044;3.766;2024-03-02T10:36:09;99898.62;;;11.16;100.00
63281;BME280;49406;51.044;3.766;2024-03-02T10:38:43;99904.48;;;11.26;100.00
63281;BME280;49406;51.044;3.766;2024-03-02T10:41:21;99900.46;;;11.26;100.00
63281;BME280;49406;51.044;3.766;2024-03-02T10:43:57;99892.35;;;11.32;100.00
63281;BME280;49406;51.044;3.766;2024-03-02T10:46:34;99885.78;;;11.40;100.00
63281;BME280;49406;51.044;3.766;2024-03-02T10:49:09;99887.48;;;11.46;100.00
63281;BME280;49406;51.044;3.766;2024-03-02T10:51:44;99885.89;;;11.48;100.00
63281;BME280;49406;51.044;3.766;2024-03-02T10:54:19;99885.10;;;11.39;100.00
63281;BME280;49406;51.044;3.766;2024-03-02T10:57:00;99885.11;;;11.39;100.00
63281;BME280;49406;51.044;3.766;2024-03-02T10:59:36;99885.66;;;11.52;100.00
63281;BME280;49406;51.044;3.766;2024-03-02T11:02:13;99886.26;;;11.61;100.00
63281;BME280;49406;51.044;3.766;2024-03-02T11:04:50;99883.78;;;11.64;100.00
63281;BME280;49406;51.044;3.766;2024-03-02T11:07:29;99884.98;;;11.67;100.00
63281;BME280;49406;51.044;3.766;2024-03-02T11:10:04;99881.25;;;11.70;100.00
63281;BME280;49406;51.044;3.766;2024-03-02T11:12:52;99877.25;;;11.68;100.00
63281;BME280;49406;51.044;3.766;2024-03-02T11:15:28;99876.69;;;11.70;100.00
63281;BME280;49406;51.044;3.766;2024-03-02T11:18:05;99870.73;;;11.71;100.00
63281;BME280;49406;51.044;3.766;2024-03-02T11:20:42;99867.48;;;11.83;100.00
63281;BME280;49406;51.044;3.766;2024-03-02T11:23:17;99857.19;;;11.94;100.00
63281;BME280;49406;51.044;3.766;2024-03-02T11:25:51;99865.98;;;12.03;100.00
63281;BME280;49406;51.044;3.766;2024-03-02T11:28:36;99863.13;;;12.20;100.00
63281;BME280;49406;51.044;3.766;2024-03-02T11:31:11;99873.71;;;12.40;100.00
63281;BME280;49406;51.044;3.766;2024-03-02T11:33:45;99877.50;;;12.45;100.00
63281;BME280;49406;51.044;3.766;2024-03-02T11:36:20;99879.21;;;12.48;100.00
63281;BME280;49406;51.044;3.766;2024-03-02T11:38:54;99872.37;;;12.48;100.00
63281;BME280;49406;51.044;3.766;2024-03-02T11:41:29;99872.42;;;12.45;100.00
63281;BME280;49406;51.044;3.766;2024-03-02T11:44:06;99873.48;;;12.43;100.00
63281;BME280;49406;51.044;3.766;2024-03-02T11:46:46;99863.76;;;12.37;100.00
63281;BME280;49406;51.044;3.766;2024-03-02T11:49:38;99861.61;;;12.29;100.00
63281;BME280;49406;51.044;3.766;2024-03-02T11:52:14;99869.14;;;12.29;100.00
63281;BME280;49406;51.044;3.766;2024-03-02T11:54:50;99859.65;;;12.31;100.00
63281;BME280;49406;51.044;3.766;2024-03-02T11:57:26;99855.88;;;12.37;100.00
63281;BME280;49406;51.044;3.766;2024-03-02T12:00:16;99857.84;;;12.35;100.00
63281;BME280;49406;51.044;3.766;2024-03-02T12:03:01;99846.58;;;12.25;100.00
63281;BME280;49406;51.044;3.766;2024-03-02T12:05:37;99847.72;;;12.19;100.00
63281;BME280;49406;51.044;3.766;2024-03-02T12:08:12;99844.86;;;12.11;100.00
63281;BME280;49406;51.044;3.766;2024-03-02T12:10:57;99840.37;;;12.06;100.00
63281;BME280;49406;51.044;3.766;2024-03-02T12:13:33;99836.95;;;12.01;100.00
63281;BME280;49406;51.044;3.766;2024-03-02T12:16:08;99835.02;;;11.88;100.00
63281;BME280;49406;51.044;3.766;2024-03-02T12:18:44;99834.20;;;11.84;100.00
63281;BME280;49406;51.044;3.766;2024-03-02T12:21:19;99830.78;;;11.76;100.00
63281;BME280;49406;51.044;3.766;2024-03-02T12:23:53;99828.77;;;11.67;100.00
63281;BME280;49406;51.044;3.766;2024-03-02T12:26:26;99819.42;;;11.59;100.00
63281;BME280;49406;51.044;3.766;2024-03-02T12:29:01;99819.33;;;11.52;100.00
63281;BME280;49406;51.044;3.766;2024-03-02T12:31:36;99817.36;;;11.55;100.00
63281;BME280;49406;51.044;3.766;2024-03-02T12:34:10;99806.70;;;11.54;100.00
63281;BME280;49406;51.044;3.766;2024-03-02T12:36:46;99816.78;;;11.45;100.00
63281;BME280;49406;51.044;3.766;2024-03-02T12:39:23;99814.34;;;11.30;100.00
63281;BME280;49406;51.044;3.766;2024-03-02T12:41:57;99808.98;;;11.24;100.00
63281;BME280;49406;51.044;3.766;2024-03-02T12:44:32;99808.91;;;11.14;100.00
63281;BME280;49406;51.044;3.766;2024-03-02T12:47:07;99804.94;;;11.09;100.00
63281;BME280;49406;51.044;3.766;2024-03-02T12:49:42;99801.63;;;11.09;100.00
63281;BME280;49406;51.044;3.766;2024-03-02T12:52:17;99801.81;;;11.06;100.00
63281;BME280;49406;51.044;3.766;2024-03-02T12:54:52;99799.11;;;10.97;100.00
63281;BME280;49406;51.044;3.766;2024-03-02T12:57:32;99798.14;;;10.89;100.00
63281;BME280;49406;51.044;3.766;2024-03-02T13:00:09;99797.02;;;10.81;100.00
63281;BME280;49406;51.044;3.766;2024-03-02T13:02:45;99797.41;;;10.76;100.00
63281;BME280;49406;51.044;3.766;2024-03-02T13:05:20;99796.44;;;10.66;100.00
63281;BME280;49406;51.044;3.766;2024-03-02T13:07:56;99799.86;;;10.54;100.00
63281;BME280;49406;51.044;3.766;2024-03-02T13:10:30;99801.83;;;10.49;100.00
63281;BME280;49406;51.044;3.766;2024-03-02T13:13:07;99797.30;;;10.47;100.00
63281;BME280;49406;51.044;3.766;2024-03-02T13:15:42;99797.48;;;10.47;100.00
63281;BME280;49406;51.044;3.766;2024-03-02T13:18:19;99797.77;;;10.52;100.00
63281;BME280;49406;51.044;3.766;2024-03-02T13:20:53;99799.02;;;10.50;100.00
63281;BME280;49406;51.044;3.766;2024-03-02T13:23:29;99796.06;;;10.48;100.00
63281;BME280;49406;51.044;3.766;2024-03-02T13:26:02;99794.73;;;10.40;100.00
63281;BME280;49406;51.044;3.766;2024-03-02T13:28:38;99799.70;;;10.32;100.00
63281;BME280;49406;51.044;3.766;2024-03-02T13:31:12;99796.59;;;10.24;100.00
63281;BME280;49406;51.044;3.766;2024-03-02T13:33:47;99796.39;;;10.31;100.00
63281;BME280;49406;51.044;3.766;2024-03-02T13:36:21;99793.88;;;10.38;100.00
63281;BME280;49406;51.044;3.766;2024-03-02T13:38:57;99793.83;;;10.46;100.00
63281;BME280;49406;51.044;3.766;2024-03-02T13:41:32;99793.77;;;10.50;100.00
63281;BME280;49406;51.044;3.766;2024-03-02T13:44:06;99791.15;;;10.50;100.00